createdAt,value
2019-02-18T00:01:26.067Z,8.85
2019-02-18T00:03:53.914Z,13.80
2019-02-18T00:06:21.809Z,12.58
2019-02-18T00:08:49.693Z,12.50
2019-02-18T00:11:17.789Z,12.53
2019-02-18T00:13:45.858Z,11.22
2019-02-18T00:16:13.746Z,13.05
2019-02-18T00:18:41.759Z,12.55
2019-02-18T00:21:09.614Z,12.15
2019-02-18T00:23:37.555Z,10.60
2019-02-18T00:26:05.433Z,14.65
2019-02-18T00:28:33.270Z,14.50
2019-02-18T00:31:01.150Z,12.58
2019-02-18T00:33:28.979Z,15.68
2019-02-18T00:35:56.835Z,10.82
2019-02-18T00:38:24.748Z,12.37
2019-02-18T00:40:52.629Z,12.60
2019-02-18T00:43:20.488Z,10.03
2019-02-18T00:45:48.392Z,13.53
2019-02-18T00:48:16.239Z,13.15
2019-02-18T00:50:44.138Z,12.35
2019-02-18T00:53:12.007Z,12.53
2019-02-18T00:55:39.856Z,13.38
2019-02-18T00:58:07.718Z,11.88
2019-02-18T01:00:35.599Z,10.58
2019-02-18T01:03:03.435Z,10.20
2019-02-18T01:05:31.302Z,12.35
2019-02-18T01:07:59.169Z,11.45
2019-02-18T01:10:27.079Z,12.73
2019-02-18T01:12:55.018Z,14.87
2019-02-18T01:15:22.913Z,10.18
2019-02-18T01:17:50.860Z,9.25
2019-02-18T01:20:18.692Z,9.45
2019-02-18T01:22:46.543Z,11.18
2019-02-18T01:25:14.431Z,10.30
2019-02-18T01:27:42.285Z,12.20
2019-02-18T01:30:10.126Z,13.08
2019-02-18T01:32:38.014Z,10.78
2019-02-18T01:35:05.870Z,11.12
2019-02-18T01:37:33.870Z,12.23
2019-02-18T01:40:01.725Z,12.28
2019-02-18T01:42:29.560Z,10.40
2019-02-18T01:44:57.441Z,11.57
2019-02-18T01:47:25.311Z,9.70
2019-02-18T01:49:53.294Z,11.70
2019-02-18T01:52:21.160Z,12.53
2019-02-18T01:54:49.031Z,11.43
2019-02-18T01:57:16.890Z,9.23
2019-02-18T01:59:44.750Z,9.48
2019-02-18T02:02:12.583Z,10.13
2019-02-18T02:04:40.457Z,11.75
2019-02-18T02:07:08.423Z,9.53
2019-02-18T02:09:36.304Z,11.25
2019-02-18T02:12:04.181Z,11.22
2019-02-18T02:14:32.100Z,12.88
2019-02-18T02:16:59.952Z,12.70
2019-02-18T02:19:27.923Z,10.15
2019-02-18T02:21:55.891Z,9.25
2019-02-18T02:24:23.829Z,10.53
2019-02-18T02:26:51.699Z,10.18
2019-02-18T02:29:19.550Z,10.93
2019-02-18T02:31:47.448Z,9.83
2019-02-18T02:34:15.355Z,11.00
2019-02-18T02:36:43.348Z,10.25
2019-02-18T02:39:11.284Z,11.43
2019-02-18T02:41:39.191Z,10.35
2019-02-18T02:44:07.126Z,11.33
2019-02-18T02:46:35.056Z,9.75
2019-02-18T02:49:03.095Z,9.88
2019-02-18T02:51:31.017Z,11.28
2019-02-18T02:53:58.925Z,9.68
2019-02-18T02:56:26.766Z,12.45
2019-02-18T02:58:54.663Z,13.62
2019-02-18T03:01:22.542Z,11.28
2019-02-18T03:03:50.447Z,11.88
2019-02-18T03:06:18.380Z,10.35
2019-02-18T03:08:46.255Z,10.28
2019-02-18T03:11:14.186Z,10.82
2019-02-18T03:13:42.065Z,10.80
2019-02-18T03:16:10.022Z,9.58
2019-02-18T03:18:37.900Z,9.68
2019-02-18T03:21:05.780Z,12.53
2019-02-18T03:23:33.775Z,9.10
2019-02-18T03:26:01.637Z,11.05
2019-02-18T03:28:29.602Z,12.78
2019-02-18T03:30:57.454Z,10.45
2019-02-18T03:33:25.305Z,10.58
2019-02-18T03:35:53.298Z,11.73
2019-02-18T03:38:31.188Z,10.28
2019-02-18T03:40:50.867Z,10.13
2019-02-18T03:43:18.804Z,9.80
2019-02-18T03:45:46.703Z,9.90
2019-02-18T03:48:14.615Z,10.50
2019-02-18T03:50:42.569Z,11.10
2019-02-18T03:53:10.545Z,13.30
2019-02-18T03:55:38.388Z,9.18
2019-02-18T03:58:06.216Z,9.28
2019-02-18T04:00:34.105Z,11.48
2019-02-18T04:03:01.954Z,10.23
2019-02-18T04:05:29.981Z,12.10
2019-02-18T04:07:57.857Z,9.03
2019-02-18T04:10:25.867Z,13.22
2019-02-18T04:12:53.735Z,10.63
2019-02-18T04:15:21.681Z,11.12
2019-02-18T04:17:49.530Z,10.60
2019-02-18T04:20:17.422Z,11.30
2019-02-18T04:22:45.334Z,11.48
2019-02-18T04:25:13.374Z,9.78
2019-02-18T04:27:41.224Z,11.55
2019-02-18T04:30:09.144Z,8.88
2019-02-18T04:32:37.002Z,11.65
2019-02-18T04:35:04.868Z,11.12
2019-02-18T04:37:32.833Z,11.65
2019-02-18T04:40:00.710Z,10.32
2019-02-18T04:42:28.595Z,11.45
2019-02-18T04:44:56.458Z,9.80
2019-02-18T04:47:24.317Z,11.90
2019-02-18T04:49:52.261Z,11.45
2019-02-18T04:52:20.346Z,10.25
2019-02-18T04:54:48.237Z,10.60
2019-02-18T04:57:16.092Z,9.58
2019-02-18T04:59:43.981Z,10.08
2019-02-18T05:02:11.882Z,13.50
2019-02-18T05:04:39.838Z,11.95
2019-02-18T05:07:07.770Z,11.15
2019-02-18T05:09:35.727Z,11.50
2019-02-18T05:12:03.748Z,12.90
2019-02-18T05:14:31.615Z,10.65
2019-02-18T05:16:58.918Z,9.97
2019-02-18T05:19:26.889Z,11.05
2019-02-18T05:21:54.752Z,13.48
2019-02-18T05:24:22.583Z,8.98
2019-02-18T05:26:50.470Z,13.88
2019-02-18T05:29:18.339Z,15.68
2019-02-18T05:31:46.229Z,17.40
2019-02-18T05:34:14.145Z,14.90
2019-02-18T05:36:41.993Z,13.85
2019-02-18T05:39:17.969Z,13.90
2019-02-18T05:41:39.459Z,12.73
2019-02-18T05:44:07.322Z,11.95
2019-02-18T05:46:35.285Z,14.23
2019-02-18T05:49:03.222Z,15.28
2019-02-18T05:51:31.173Z,12.05
2019-02-18T05:53:59.127Z,12.80
2019-02-18T05:56:26.985Z,12.80
2019-02-18T05:58:54.863Z,12.58
2019-02-18T06:01:22.799Z,16.02
2019-02-18T06:03:50.674Z,12.58
2019-02-18T06:06:18.558Z,16.32
2019-02-18T06:08:46.507Z,11.70
2019-02-18T06:11:14.495Z,13.05
2019-02-18T06:13:42.390Z,14.90
2019-02-18T06:16:10.265Z,14.28
2019-02-18T06:18:38.163Z,17.73
2019-02-18T06:21:06.026Z,20.75
2019-02-18T06:23:33.971Z,15.53
2019-02-18T06:26:01.807Z,16.42
2019-02-18T06:28:29.782Z,21.50
2019-02-18T06:30:57.045Z,21.13
2019-02-18T06:33:24.931Z,23.40
2019-02-18T06:35:52.772Z,19.55
2019-02-18T06:38:20.675Z,22.17
2019-02-18T06:40:47.968Z,17.83
2019-02-18T06:43:15.828Z,15.80
2019-02-18T06:45:49.256Z,14.68
2019-02-18T06:48:36.172Z,13.45
2019-02-18T06:51:04.013Z,16.10
2019-02-18T06:53:31.896Z,13.32
2019-02-18T06:55:59.804Z,16.50
2019-02-18T06:58:45.490Z,15.58
2019-02-18T07:01:24.680Z,16.35
2019-02-18T07:04:10.312Z,14.13
2019-02-18T07:06:53.928Z,15.88
2019-02-18T07:09:29.459Z,17.87
2019-02-18T07:12:14.283Z,15.32
2019-02-18T07:14:41.964Z,15.05
2019-02-18T07:17:10.510Z,19.80
2019-02-18T07:19:38.524Z,17.90
2019-02-18T07:22:06.380Z,14.60
2019-02-18T07:24:34.280Z,15.03
2019-02-18T07:27:02.143Z,17.77
2019-02-18T07:29:30.004Z,17.85
2019-02-18T07:31:58.029Z,21.07
2019-02-18T07:34:26.061Z,20.32
2019-02-18T07:36:54.054Z,23.12
2019-02-18T07:39:21.937Z,19.45
2019-02-18T07:41:49.860Z,23.45
2019-02-18T07:44:17.792Z,21.37
2019-02-18T07:46:45.658Z,25.45
2019-02-18T07:49:13.506Z,24.70
2019-02-18T07:51:41.385Z,23.98
2019-02-18T07:54:10.305Z,28.92
2019-02-18T07:56:38.501Z,30.80
2019-02-18T07:59:06.357Z,41.42
2019-02-18T08:01:34.253Z,34.90
2019-02-18T08:04:01.536Z,31.87
2019-02-18T08:06:29.539Z,34.27
2019-02-18T08:08:57.661Z,27.40
2019-02-18T08:11:25.675Z,24.07
2019-02-18T08:13:53.692Z,23.20
2019-02-18T08:16:21.590Z,19.45
2019-02-18T08:18:49.574Z,19.02
2019-02-18T08:21:17.512Z,19.62
2019-02-18T08:23:45.392Z,15.08
2019-02-18T08:26:13.230Z,14.18
2019-02-18T08:28:41.144Z,13.68
2019-02-18T08:31:08.961Z,14.05
2019-02-18T08:33:36.956Z,10.40
2019-02-18T08:36:04.906Z,12.37
2019-02-18T08:38:32.767Z,15.30
2019-02-18T08:41:00.670Z,13.62
2019-02-18T08:43:28.516Z,13.30
2019-02-18T08:45:56.371Z,14.87
2019-02-18T08:48:24.591Z,13.85
2019-02-18T08:50:52.462Z,14.47
2019-02-18T08:53:20.388Z,14.35
2019-02-18T08:55:48.300Z,13.78
2019-02-18T08:58:16.157Z,13.58
2019-02-18T09:00:44.010Z,14.00
2019-02-18T09:03:11.975Z,14.40
2019-02-18T09:05:39.873Z,11.73
2019-02-18T09:08:07.725Z,11.83
2019-02-18T09:10:35.625Z,16.70
2019-02-18T09:13:03.576Z,15.50
2019-02-18T09:15:31.622Z,14.60
2019-02-18T09:17:59.422Z,14.15
2019-02-18T09:20:27.281Z,14.10
2019-02-18T09:22:59.912Z,14.73
2019-02-18T09:25:33.334Z,12.88
2019-02-18T09:28:01.230Z,12.88
2019-02-18T09:30:31.390Z,11.85
2019-02-18T09:32:59.219Z,10.80
2019-02-18T09:35:27.098Z,11.70
2019-02-18T09:37:54.987Z,14.28
2019-02-18T09:40:22.859Z,13.32
2019-02-18T09:42:50.737Z,12.85
2019-02-18T09:45:18.591Z,13.22
2019-02-18T09:47:46.457Z,12.23
2019-02-18T09:50:14.405Z,12.80
2019-02-18T09:52:42.253Z,13.13
2019-02-18T09:55:10.157Z,13.60
2019-02-18T09:57:38.022Z,16.15
2019-02-18T10:00:05.961Z,13.28
2019-02-18T10:02:33.802Z,14.30
2019-02-18T10:05:01.646Z,12.70
2019-02-18T10:07:29.528Z,12.80
2019-02-18T10:09:57.361Z,13.05
2019-02-18T10:12:25.241Z,12.98
2019-02-18T10:14:53.221Z,18.80
2019-02-18T10:17:21.046Z,13.70
2019-02-18T10:19:48.871Z,14.25
2019-02-18T10:22:16.733Z,13.95
2019-02-18T10:27:14.210Z,14.43
2019-02-18T10:29:42.146Z,13.10
2019-02-18T10:32:10.000Z,13.05
2019-02-18T10:34:37.863Z,14.98
2019-02-18T10:37:05.726Z,12.33
2019-02-18T10:39:33.720Z,13.83
2019-02-18T10:42:01.551Z,14.80
2019-02-18T10:44:29.426Z,11.68
2019-02-18T10:46:57.283Z,13.68
2019-02-18T10:49:25.159Z,11.35
2019-02-18T10:51:53.390Z,13.60
2019-02-18T10:54:21.299Z,12.85
2019-02-18T10:56:49.135Z,13.13
2019-02-18T10:59:16.996Z,13.93
2019-02-18T11:01:44.840Z,14.43
2019-02-18T11:04:12.725Z,15.13
2019-02-18T11:06:40.702Z,11.28
2019-02-18T11:09:10.866Z,11.75
2019-02-18T11:11:38.756Z,12.07
2019-02-18T11:14:06.605Z,12.40
2019-02-18T11:16:34.876Z,11.55
2019-02-18T11:19:02.758Z,12.90
2019-02-18T11:21:30.615Z,14.83
2019-02-18T11:23:58.802Z,13.50
2019-02-18T11:26:26.670Z,12.45
2019-02-18T11:28:54.659Z,7.90
2019-02-18T11:31:22.571Z,6.80
2019-02-18T11:33:50.419Z,10.50
2019-02-18T11:36:18.467Z,8.13
2019-02-18T11:38:46.357Z,6.47
2019-02-18T11:41:14.248Z,7.47
2019-02-18T11:43:42.221Z,8.03
2019-02-18T11:46:10.073Z,8.68
2019-02-18T11:48:38.192Z,7.25
2019-02-18T11:51:06.065Z,6.37
2019-02-18T11:53:33.946Z,6.60
2019-02-18T11:56:01.881Z,5.20
2019-02-18T11:58:29.710Z,7.53
2019-02-18T12:00:57.696Z,6.17
2019-02-18T12:03:26.024Z,7.03
2019-02-18T12:05:54.062Z,8.40
2019-02-18T12:08:22.049Z,4.37
2019-02-18T12:10:49.994Z,6.67
2019-02-18T12:13:17.872Z,5.05
2019-02-18T12:15:45.857Z,6.05
2019-02-18T12:18:13.939Z,6.60
2019-02-18T12:20:41.886Z,5.70
2019-02-18T12:23:09.773Z,6.53
2019-02-18T12:25:37.699Z,7.15
2019-02-18T12:28:05.578Z,8.23
2019-02-18T12:30:33.542Z,5.62
2019-02-18T12:33:01.504Z,8.98
2019-02-18T12:35:31.537Z,6.05
2019-02-18T12:37:59.043Z,9.43
2019-02-18T12:40:27.001Z,8.00
2019-02-18T12:42:54.863Z,11.93
2019-02-18T12:45:22.696Z,6.92
2019-02-18T12:47:50.555Z,7.62
2019-02-18T12:50:18.488Z,6.83
2019-02-18T12:52:46.414Z,9.95
2019-02-18T12:55:14.999Z,9.90
2019-02-18T12:57:43.066Z,8.78
2019-02-18T13:00:11.526Z,7.37
2019-02-18T13:02:44.386Z,5.42
2019-02-18T13:05:09.593Z,6.35
2019-02-18T13:07:37.624Z,9.43
2019-02-18T13:10:05.962Z,6.53
2019-02-18T13:12:33.860Z,4.30
2019-02-18T13:15:02.013Z,6.28
2019-02-18T13:17:30.029Z,7.53
2019-02-18T13:19:57.941Z,6.20
2019-02-18T13:22:25.958Z,5.00
2019-02-18T13:24:53.863Z,7.85
2019-02-18T13:27:21.772Z,5.55
2019-02-18T13:29:49.671Z,6.30
2019-02-18T13:32:17.596Z,4.12
2019-02-18T13:34:45.542Z,6.75
2019-02-18T13:37:13.389Z,9.25
2019-02-18T13:39:41.274Z,12.68
2019-02-18T13:42:09.121Z,7.40
2019-02-18T13:44:37.007Z,5.97
2019-02-18T13:47:05.151Z,5.40
2019-02-18T13:49:33.077Z,4.15
2019-02-18T13:52:01.006Z,6.65
2019-02-18T13:54:28.959Z,5.35
2019-02-18T13:56:56.794Z,7.33
2019-02-18T13:59:24.841Z,5.58
2019-02-18T14:01:52.777Z,5.55
2019-02-18T14:04:20.738Z,6.60
2019-02-18T14:06:48.972Z,8.73
2019-02-18T14:09:16.982Z,9.78
2019-02-18T14:11:44.824Z,4.53
2019-02-18T14:14:12.721Z,6.03
2019-02-18T14:16:40.632Z,4.37
2019-02-18T14:19:08.479Z,3.60
2019-02-18T14:21:36.320Z,7.25
2019-02-18T14:24:04.552Z,5.87
2019-02-18T14:26:32.430Z,6.28
2019-02-18T14:29:03.320Z,5.72
2019-02-18T14:31:31.267Z,5.00
2019-02-18T14:33:59.222Z,4.80
2019-02-18T14:36:27.106Z,6.37
2019-02-18T14:38:55.023Z,6.55
2019-02-18T14:41:22.877Z,3.90
2019-02-18T14:43:50.801Z,10.05
2019-02-18T14:46:18.638Z,6.05
2019-02-18T14:48:46.523Z,5.65
2019-02-18T14:51:14.382Z,5.30
2019-02-18T14:53:42.271Z,11.33
2019-02-18T14:56:13.176Z,7.15
2019-02-18T14:58:41.075Z,4.35
2019-02-18T15:01:09.007Z,8.35
2019-02-18T15:03:36.908Z,6.15
2019-02-18T15:06:04.858Z,6.80
2019-02-18T15:08:32.763Z,6.78
2019-02-18T15:11:00.630Z,5.62
2019-02-18T15:13:28.641Z,7.97
2019-02-18T15:15:56.503Z,5.37
2019-02-18T15:18:24.456Z,4.90
2019-02-18T15:20:52.417Z,6.05
2019-02-18T15:23:20.377Z,5.83
2019-02-18T15:25:48.337Z,17.55
2019-02-18T15:28:16.269Z,12.47
2019-02-18T15:30:44.329Z,8.10
2019-02-18T15:33:12.263Z,13.93
2019-02-18T15:35:40.155Z,11.00
2019-02-18T15:38:08.002Z,7.85
2019-02-18T15:40:35.955Z,8.30
2019-02-18T15:43:03.819Z,10.15
2019-02-18T15:45:31.940Z,8.35
2019-02-18T15:48:01.698Z,6.22
2019-02-18T15:50:29.430Z,6.95
2019-02-18T15:52:57.326Z,8.38
2019-02-18T15:55:25.181Z,7.37
2019-02-18T15:57:53.058Z,4.95
2019-02-18T16:00:21.014Z,5.60
2019-02-18T16:02:49.323Z,7.12
2019-02-18T16:05:17.233Z,6.60
2019-02-18T16:07:45.246Z,10.05
2019-02-18T16:10:13.159Z,7.37
2019-02-18T16:12:41.124Z,9.10
2019-02-18T16:15:08.995Z,10.78
2019-02-18T16:17:36.942Z,11.25
2019-02-18T16:20:05.182Z,10.25
2019-02-18T16:22:33.026Z,12.18
2019-02-18T16:25:00.921Z,15.20
2019-02-18T16:27:28.875Z,10.45
2019-02-18T16:29:56.830Z,10.43
2019-02-18T16:32:24.775Z,7.85
2019-02-18T16:34:52.735Z,8.05
2019-02-18T16:37:21.084Z,7.75
2019-02-18T16:39:49.003Z,11.57
2019-02-18T16:42:16.955Z,10.63
2019-02-18T16:44:44.891Z,16.65
2019-02-18T16:47:12.926Z,12.20
2019-02-18T16:49:40.919Z,13.05
2019-02-18T16:52:09.151Z,11.28
2019-02-18T16:54:36.994Z,14.58
2019-02-18T16:57:04.946Z,15.25
2019-02-18T16:59:32.824Z,11.22
2019-02-18T17:02:00.674Z,6.70
2019-02-18T17:04:28.740Z,5.70
2019-02-18T17:06:56.646Z,8.88
2019-02-18T17:09:24.474Z,11.95
2019-02-18T17:11:52.350Z,10.05
2019-02-18T17:14:20.200Z,13.55
2019-02-18T17:16:48.142Z,8.90
2019-02-18T17:19:16.121Z,8.73
2019-02-18T17:21:45.600Z,5.62
2019-02-18T17:24:13.523Z,4.83
2019-02-18T17:26:41.547Z,7.10
2019-02-18T17:29:09.411Z,9.28
2019-02-18T17:31:39.150Z,4.83
2019-02-18T17:34:07.234Z,5.42
2019-02-18T17:36:35.147Z,6.95
2019-02-18T17:39:03.225Z,7.70
2019-02-18T17:41:31.474Z,6.37
2019-02-18T17:43:59.344Z,8.18
2019-02-18T17:46:27.243Z,6.80
2019-02-18T17:48:56.411Z,10.20
2019-02-18T17:51:24.448Z,5.25
2019-02-18T17:53:52.346Z,10.40
2019-02-18T17:56:20.248Z,8.00
2019-02-18T17:58:48.386Z,8.65
2019-02-18T18:01:16.304Z,9.58
2019-02-18T18:03:44.198Z,9.75
2019-02-18T18:06:12.058Z,10.08
2019-02-18T18:08:40.000Z,29.00
2019-02-18T18:11:07.879Z,21.50
2019-02-18T18:13:35.775Z,10.80
2019-02-18T18:16:03.921Z,13.10
2019-02-18T18:18:31.901Z,14.75
2019-02-18T18:20:59.919Z,18.48
2019-02-18T18:23:27.853Z,47.43
2019-02-18T18:25:55.737Z,23.80
2019-02-18T18:28:23.682Z,30.40
2019-02-18T18:30:51.603Z,28.52
2019-02-18T18:33:19.760Z,25.70
2019-02-18T18:35:47.674Z,18.55
2019-02-18T18:38:17.090Z,18.10
2019-02-18T18:40:44.959Z,10.30
2019-02-18T18:43:12.871Z,11.18
2019-02-18T18:45:40.827Z,10.82
2019-02-18T18:48:09.248Z,10.20
2019-02-18T18:50:37.101Z,8.95
2019-02-18T18:53:05.083Z,10.15
2019-02-18T18:55:39.735Z,9.75
2019-02-18T18:58:07.441Z,13.53
2019-02-18T19:00:35.368Z,12.85
2019-02-18T19:03:03.643Z,12.05
2019-02-18T19:05:31.554Z,12.13
2019-02-18T19:07:59.451Z,12.13
2019-02-18T19:10:27.557Z,53.85
2019-02-18T19:12:55.403Z,29.15
2019-02-18T19:15:23.322Z,20.12
2019-02-18T19:17:51.254Z,17.32
2019-02-18T19:20:19.237Z,15.80
2019-02-18T19:22:50.388Z,21.65
2019-02-18T19:25:18.324Z,19.92
2019-02-18T19:27:46.202Z,13.60
2019-02-18T19:30:14.199Z,14.90
2019-02-18T19:32:42.131Z,9.78
2019-02-18T19:35:10.065Z,10.25
2019-02-18T19:37:37.918Z,12.20
2019-02-18T19:40:05.812Z,12.28
2019-02-18T19:42:33.675Z,14.33
2019-02-18T19:45:01.648Z,15.90
2019-02-18T19:47:29.526Z,17.50
2019-02-18T19:49:57.818Z,17.17
2019-02-18T19:52:25.703Z,25.30
2019-02-18T19:54:53.592Z,25.37
2019-02-18T19:57:21.482Z,20.65
2019-02-18T19:59:49.391Z,21.70
2019-02-18T20:02:17.282Z,21.42
2019-02-18T20:04:45.273Z,20.23
2019-02-18T20:07:13.212Z,24.80
2019-02-18T20:09:41.163Z,17.25
2019-02-18T20:12:09.153Z,18.87
2019-02-18T20:14:37.116Z,18.15
2019-02-18T20:17:05.020Z,14.35
2019-02-18T20:19:33.090Z,15.25
2019-02-18T20:22:01.455Z,16.57
2019-02-18T20:24:29.374Z,24.55
2019-02-18T20:26:57.433Z,18.05
2019-02-18T20:29:25.300Z,13.55
2019-02-18T20:31:53.208Z,10.93
2019-02-18T20:34:21.095Z,12.20
2019-02-18T20:36:49.078Z,12.78
2019-02-18T20:39:17.503Z,10.93
2019-02-18T20:41:45.457Z,11.88
2019-02-18T20:44:13.394Z,11.97
2019-02-18T20:46:41.361Z,10.25
2019-02-18T20:49:09.231Z,13.38
2019-02-18T20:51:37.198Z,13.60
2019-02-18T20:54:05.374Z,14.50
2019-02-18T20:56:33.297Z,13.28
2019-02-18T20:59:01.164Z,11.25
2019-02-18T21:01:29.050Z,11.40
2019-02-18T21:03:56.985Z,12.25
2019-02-18T21:06:24.879Z,11.15
2019-02-18T21:08:52.809Z,11.05
2019-02-18T21:11:21.048Z,12.07
2019-02-18T21:13:48.995Z,11.97
2019-02-18T21:16:16.890Z,14.73
2019-02-18T21:18:44.751Z,11.25
2019-02-18T21:21:12.687Z,15.72
2019-02-18T21:23:40.662Z,14.28
2019-02-18T21:26:08.563Z,11.12
2019-02-18T21:28:36.517Z,10.80
2019-02-18T21:31:04.395Z,13.22
2019-02-18T21:33:32.267Z,13.48
2019-02-18T21:36:06.144Z,16.15
2019-02-18T21:38:33.981Z,16.65
2019-02-18T21:41:01.867Z,15.70
2019-02-18T21:43:29.998Z,14.28
2019-02-18T21:45:57.877Z,16.12
2019-02-18T21:48:25.722Z,14.33
2019-02-18T21:50:53.949Z,15.68
2019-02-18T21:53:21.846Z,13.58
2019-02-18T21:55:49.666Z,13.38
2019-02-18T21:58:17.517Z,16.52
2019-02-18T22:00:45.410Z,12.58
2019-02-18T22:03:13.296Z,15.25
2019-02-18T22:05:41.161Z,14.65
2019-02-18T22:08:09.093Z,16.82
2019-02-18T22:10:37.041Z,19.95
2019-02-18T22:13:04.936Z,18.62
2019-02-18T22:15:32.801Z,17.17
2019-02-18T22:18:00.696Z,24.00
2019-02-18T22:20:28.554Z,29.15
2019-02-18T22:22:56.439Z,22.15
2019-02-18T22:25:24.325Z,30.48
2019-02-18T22:27:52.242Z,45.10
2019-02-18T22:30:20.110Z,30.00
2019-02-18T22:32:47.977Z,25.77
2019-02-18T22:35:16.103Z,16.93
2019-02-18T22:37:44.081Z,20.05
2019-02-18T22:40:11.948Z,19.85
2019-02-18T22:42:39.920Z,22.20
2019-02-18T22:45:07.792Z,19.15
2019-02-18T22:47:35.631Z,15.90
2019-02-18T22:50:03.510Z,17.25
2019-02-18T22:52:31.866Z,17.02
2019-02-18T22:54:59.710Z,16.50
2019-02-18T22:57:27.601Z,14.68
2019-02-18T22:59:55.444Z,14.38
2019-02-18T23:02:23.296Z,14.38
2019-02-18T23:04:51.136Z,13.65
2019-02-18T23:07:18.981Z,14.73
2019-02-18T23:09:47.199Z,14.28
2019-02-18T23:12:15.126Z,10.43
2019-02-18T23:14:50.335Z,14.98
2019-02-18T23:17:12.628Z,11.83
2019-02-18T23:19:40.583Z,13.20
2019-02-18T23:22:08.515Z,13.50
2019-02-18T23:24:36.365Z,14.00
2019-02-18T23:27:04.245Z,16.00
2019-02-18T23:29:32.289Z,11.75
2019-02-18T23:32:00.193Z,19.30
2019-02-18T23:34:28.039Z,13.75
2019-02-18T23:36:55.920Z,12.73
2019-02-18T23:39:23.832Z,12.50
2019-02-18T23:41:51.683Z,12.43
2019-02-18T23:44:19.549Z,12.65
2019-02-18T23:46:47.466Z,13.95
2019-02-18T23:49:15.360Z,10.08
2019-02-18T23:51:43.249Z,9.93
2019-02-18T23:54:11.118Z,12.15
2019-02-18T23:56:39.012Z,12.13
2019-02-18T23:59:06.926Z,12.65
